Time;durP1;ratioP1;P1;durP2;ratioP2;P2;SDS_P1;SDS_P2;PMS_P1;PMS_P2;Temp;Humidity;BMP_temperature;BMP_pressure;BME280_temperature;BME280_humidity;BME280_pressure;Samples;Min_cycle;Max_cycle;Signal;HPM_P1;HPM_P2
2022/10/15 00:02:14;;;;;;;159.38;60.33;;;;;;;10.30;100.00;100599.38;12890291;22;20047;-86
2022/10/15 00:07:14;;;;;;;177.38;61.47;;;;;;;9.83;100.00;100496.25;12875087;23;20027;-87
2022/10/15 00:12:15;;;;;;;161.20;59.83;;;;;;;9.93;100.00;100484.53;12830232;23;20036;-87
2022/10/15 00:17:16;;;;;;;159.63;58.10;;;;;;;10.83;100.00;100616.97;12830057;23;20027;-87
2022/10/15 00:22:16;;;;;;;152.68;57.05;;;;;;;10.01;100.00;100469.50;12828191;23;20020;-86
2022/10/15 00:27:17;;;;;;;150.20;58.10;;;;;;;10.67;100.00;100598.63;12852149;23;20070;-87
2022/10/15 00:32:17;;;;;;;178.30;60.22;;;;;;;9.89;100.00;100483.41;12828937;23;20322;-86
2022/10/15 00:37:21;;;;;;;150.10;57.13;;;;;;;10.73;100.00;100614.13;12829080;23;21642;-86
2022/10/15 00:42:22;;;;;;;160.77;58.97;;;;;;;9.64;100.00;100459.22;12828801;23;20036;-87
2022/10/15 00:47:24;;;;;;;169.50;61.30;;;;;;;10.96;100.00;100623.94;12836836;23;20008;-87
2022/10/15 00:52:29;;;;;;;150.32;60.22;;;;;;;9.55;100.00;100411.28;12840040;23;20322;-87
2022/10/15 00:57:30;;;;;;;156.15;60.25;;;;;;;10.00;100.00;100481.56;12853385;23;20308;-87
2022/10/15 01:02:30;;;;;;;152.70;58.70;;;;;;;10.06;100.00;100477.78;12826961;23;20024;-87
2022/10/15 01:07:31;;;;;;;162.43;60.10;;;;;;;10.40;100.00;100560.97;12898320;22;20051;-89
2022/10/15 01:13:10;;;;;;;156.68;58.40;;;;;;;9.47;100.00;100382.38;12890419;22;20004;-88
2022/10/15 01:18:14;;;;;;;158.85;59.83;;;;;;;10.35;100.00;100533.38;12918760;22;20004;-87
2022/10/15 01:23:42;;;;;;;160.10;60.03;;;;;;;11.18;100.00;100653.31;12914948;22;20016;-87
2022/10/15 01:28:43;;;;;;;147.82;60.45;;;;;;;11.16;100.00;100645.28;12925310;22;20087;-88
2022/10/15 01:33:48;;;;;;;163.75;61.60;;;;;;;10.47;100.00;100542.28;12939126;22;20016;-87
2022/10/15 01:38:59;;;;;;;149.48;59.80;;;;;;;10.36;100.00;100550.75;12889677;22;20079;-87
2022/10/15 01:44:23;;;;;;;154.15;61.70;;;;;;;9.93;100.00;100445.22;12913137;22;20019;-87
2022/10/15 01:49:25;;;;;;;156.88;59.15;;;;;;;9.78;100.00;100482.47;12914188;22;20016;-87
2022/10/15 01:54:25;;;;;;;167.40;61.63;;;;;;;9.88;100.00;100435.84;12888681;22;20003;-86
2022/10/15 01:59:27;;;;;;;164.07;64.47;;;;;;;9.77;100.00;100458.81;12860752;22;20007;-88
2022/10/15 02:04:29;;;;;;;159.13;63.47;;;;;;;9.81;100.00;100481.94;12904904;22;20058;-85
2022/10/15 02:09:38;;;;;;;191.02;67.63;;;;;;;11.03;100.00;100624.53;12897946;22;20004;-87
2022/10/15 02:14:52;;;;;;;176.40;67.22;;;;;;;10.59;100.00;100564.16;12914083;22;20450;-88
2022/10/15 02:19:59;;;;;;;193.50;66.35;;;;;;;10.55;100.00;100541.00;12887764;22;20011;-88
2022/10/15 02:25:05;;;;;;;181.40;68.13;;;;;;;9.86;100.00;100432.50;12890107;22;20024;-89
2022/10/15 02:30:07;;;;;;;195.10;70.88;;;;;;;9.96;100.00;100444.69;12887904;22;20063;-88
2022/10/15 02:35:08;;;;;;;193.93;68.82;;;;;;;9.86;100.00;100446.25;12874404;22;20007;-88
2022/10/15 02:40:09;;;;;;;181.45;69.63;;;;;;;9.46;100.00;100389.78;12888281;22;20008;-86
2022/10/15 02:45:10;;;;;;;182.07;68.85;;;;;;;10.08;100.00;100465.41;12874329;22;20016;-88
2022/10/15 02:50:10;;;;;;;203.88;70.90;;;;;;;11.10;100.00;100638.13;12888110;22;20004;-88
2022/10/15 02:55:13;;;;;;;175.52;66.25;;;;;;;9.88;100.00;100396.47;12876092;22;20008;-86
2022/10/15 03:00:14;;;;;;;183.85;66.15;;;;;;;9.86;100.00;100417.91;12888246;22;20083;-88
2022/10/15 03:05:14;;;;;;;171.90;67.97;;;;;;;10.73;100.00;100536.16;12875084;22;20395;-87
2022/10/15 03:10:15;;;;;;;171.77;65.88;;;;;;;9.76;100.00;100424.16;12888565;22;20012;-87
2022/10/15 03:15:16;;;;;;;171.88;62.65;;;;;;;9.70;100.00;100422.47;12914808;22;20007;-86
2022/10/15 03:20:16;;;;;;;176.48;65.63;;;;;;;10.23;100.00;100497.75;12903034;22;20019;-87
2022/10/15 03:25:17;;;;;;;161.57;62.72;;;;;;;10.25;100.00;100497.47;12890941;22;20072;-87
2022/10/15 03:30:18;;;;;;;163.85;64.03;;;;;;;10.25;100.00;100480.97;12891583;22;20000;-87
2022/10/15 03:35:18;;;;;;;163.90;62.15;;;;;;;10.67;100.00;100547.16;12904032;22;20008;-87
2022/10/15 03:40:19;;;;;;;153.73;62.45;;;;;;;10.15;100.00;100459.72;12913953;22;20082;-86
2022/10/15 03:45:20;;;;;;;153.55;60.70;;;;;;;10.02;100.00;100436.22;12890893;22;20387;-87
2022/10/15 03:50:20;;;;;;;148.23;58.70;;;;;;;9.17;100.00;100267.50;12915667;22;24656;-86
2022/10/15 03:55:21;;;;;;;172.10;58.70;;;;;;;10.18;100.00;100448.19;12802720;22;20000;-88
2022/10/15 04:00:21;;;;;;;153.55;58.20;;;;;;;9.24;100.00;100301.94;12888861;22;20373;-88
2022/10/15 04:05:22;;;;;;;133.32;54.45;;;;;;;10.59;100.00;100520.09;12887998;22;20103;-86
2022/10/15 04:10:22;;;;;;;145.50;55.13;;;;;;;9.41;100.00;100348.50;12877954;22;20018;-86
2022/10/15 04:15:23;;;;;;;135.40;54.08;;;;;;;10.16;100.00;100483.38;12889929;22;20000;-87
2022/10/15 04:20:23;;;;;;;119.07;52.17;;;;;;;9.90;100.00;100435.53;12889812;22;20418;-87
2022/10/15 04:25:24;;;;;;;127.15;50.70;;;;;;;10.25;100.00;100476.31;12916069;22;20094;-87
2022/10/15 04:30:25;;;;;;;120.63;50.35;;;;;;;9.81;100.00;100426.13;12872983;22;20084;-88
2022/10/15 04:35:25;;;;;;;111.13;47.58;;;;;;;10.44;100.00;100515.31;12889274;22;20004;-87
2022/10/15 04:40:26;;;;;;;119.72;47.88;;;;;;;10.23;100.00;100489.50;12889160;22;20804;-88
2022/10/15 04:45:26;;;;;;;117.68;45.72;;;;;;;10.01;100.00;100464.00;12915840;22;20064;-88
2022/10/15 04:50:27;;;;;;;112.55;45.70;;;;;;;9.90;100.00;100419.91;12914319;22;20008;-86
2022/10/15 04:55:27;;;;;;;117.25;46.45;;;;;;;9.55;100.00;100353.56;12888008;22;20000;-87
2022/10/15 05:00:28;;;;;;;126.90;49.20;;;;;;;10.05;100.00;100471.47;12872407;22;20378;-87
2022/10/15 05:05:28;;;;;;;120.72;47.83;;;;;;;9.26;100.00;100337.34;12874387;22;20016;-87
2022/10/15 05:10:29;;;;;;;130.43;47.53;;;;;;;10.45;100.00;100540.91;12889060;22;20015;-88
2022/10/15 05:15:30;;;;;;;152.07;51.97;;;;;;;9.96;100.00;100467.50;12857424;22;20058;-88
2022/10/15 05:20:31;;;;;;;140.05;50.38;;;;;;;10.02;100.00;100487.66;12888663;22;20011;-87
2022/10/15 05:25:31;;;;;;;134.02;51.10;;;;;;;10.29;100.00;100534.38;12890236;22;20403;-88
2022/10/15 05:30:33;;;;;;;144.63;52.75;;;;;;;10.14;100.00;100515.81;12915618;22;20027;-85
2022/10/15 05:35:34;;;;;;;157.23;52.65;;;;;;;10.06;100.00;100510.78;12892324;22;20053;-87
2022/10/15 05:40:34;;;;;;;152.70;53.35;;;;;;;8.97;100.00;100323.03;12888486;22;20069;-88
2022/10/15 05:45:35;;;;;;;165.70;51.08;;;;;;;10.38;100.00;100589.84;12889076;22;20016;-87
2022/10/15 05:50:35;;;;;;;160.52;52.75;;;;;;;9.87;100.00;100480.06;12865533;22;20032;-88
2022/10/15 05:55:36;;;;;;;174.98;54.50;;;;;;;9.72;100.00;100489.00;12888427;22;20065;-86
2022/10/15 06:00:38;;;;;;;160.02;53.65;;;;;;;9.47;100.00;100443.66;12888059;22;20000;-88
2022/10/15 06:05:39;;;;;;;172.13;55.47;;;;;;;9.31;100.00;100454.72;12877100;22;20016;-87
2022/10/15 06:10:39;;;;;;;174.70;55.53;;;;;;;9.73;100.00;100500.81;12896562;22;20012;-88
2022/10/15 06:15:44;;;;;;;163.55;53.83;;;;;;;9.68;100.00;100496.09;12913180;22;20031;-87
2022/10/15 06:20:50;;;;;;;166.15;57.80;;;;;;;8.48;100.00;100279.94;12888871;22;19996;-87
2022/10/15 06:25:50;;;;;;;165.70;56.20;;;;;;;9.43;100.00;100406.78;12888010;22;20027;-86
2022/10/15 06:30:51;;;;;;;163.70;57.00;;;;;;;9.38;100.00;100422.38;12887215;22;20008;-86
2022/10/15 06:35:51;;;;;;;170.63;56.17;;;;;;;9.50;100.00;100448.63;12888450;22;20000;-87
2022/10/15 06:40:52;;;;;;;166.02;57.00;;;;;;;9.48;100.00;100430.72;12886169;22;20004;-86
2022/10/15 06:45:53;;;;;;;166.18;59.65;;;;;;;9.38;100.00;100422.38;12887339;22;20377;-86
2022/10/15 06:50:53;;;;;;;169.80;59.47;;;;;;;9.80;100.00;100479.47;12893154;22;20023;-88
2022/10/15 06:55:57;;;;;;;164.18;57.80;;;;;;;9.58;100.00;100433.59;12892028;22;20018;-87
2022/10/15 07:01:00;;;;;;;164.18;56.92;;;;;;;9.36;100.00;100375.09;12892320;22;20307;-88
2022/10/15 07:06:03;;;;;;;152.98;57.83;;;;;;;9.72;100.00;100456.00;12916205;22;20020;-88
2022/10/15 07:11:05;;;;;;;164.55;58.30;;;;;;;9.93;100.00;100440.53;12891647;22;20019;-88
2022/10/15 07:16:06;;;;;;;151.07;55.97;;;;;;;9.39;100.00;100319.66;12917329;22;20064;-88
2022/10/15 07:21:08;;;;;;;157.63;56.70;;;;;;;9.81;100.00;100377.47;12890827;22;20326;-86
2022/10/15 07:26:08;;;;;;;146.88;54.58;;;;;;;10.55;100.00;100518.97;12917206;22;20081;-88
2022/10/15 07:31:09;;;;;;;144.55;56.35;;;;;;;10.05;100.00;100399.13;12891195;22;20077;-86
2022/10/15 07:36:11;;;;;;;128.65;53.92;;;;;;;10.77;100.00;100479.47;12918439;22;20018;-87
2022/10/15 07:41:12;;;;;;;133.73;52.28;;;;;;;10.59;100.00;100410.00;12891934;22;20004;-87
2022/10/15 07:46:12;;;;;;;124.85;50.78;;;;;;;10.49;100.00;100426.44;12915004;22;20016;-87
2022/10/15 07:51:13;;;;;;;121.90;49.22;;;;;;;11.36;100.00;100561.09;12901545;22;20008;-89
2022/10/15 07:56:14;;;;;;;123.35;47.90;;;;;;;10.84;100.00;100471.81;12873067;22;20007;-86
2022/10/15 08:01:14;;;;;;;122.18;49.97;;;;;;;10.76;100.00;100447.53;12916800;22;20014;-89
2022/10/15 08:06:15;;;;;;;105.95;47.40;;;;;;;11.04;100.00;100440.81;12872231;22;20044;-88
2022/10/15 08:11:16;;;;;;;103.80;45.67;;;;;;;10.87;100.00;100373.00;12913595;22;20011;-88
2022/10/15 08:16:18;;;;;;;88.05;42.90;;;;;;;12.22;100.00;100601.22;12885617;22;20117;-90
2022/10/15 08:21:19;;;;;;;86.20;42.22;;;;;;;10.97;100.00;100394.22;12912759;22;20326;-89
2022/10/15 08:26:19;;;;;;;94.20;41.28;;;;;;;11.95;100.00;100577.41;12873587;22;20023;-89
2022/10/15 08:31:20;;;;;;;93.43;44.03;;;;;;;11.36;100.00;100457.19;12887484;22;20004;-89
2022/10/15 08:36:20;;;;;;;86.75;43.05;;;;;;;10.50;100.00;100332.59;12850156;22;20069;-88
2022/10/15 08:41:37;;;;;;;90.97;43.38;;;;;;;12.41;100.00;100562.88;12914323;22;20019;-88
2022/10/15 08:46:45;;;;;;;87.35;41.85;;;;;;;11.55;100.00;100404.34;12901630;22;20090;-88
2022/10/15 08:51:47;;;;;;;77.55;40.53;;;;;;;11.15;100.00;100317.72;12875424;22;19999;-88
2022/10/15 08:56:51;;;;;;;75.50;40.25;;;;;;;11.85;100.00;100378.75;12901301;22;20004;-87
2022/10/15 09:02:32;;;;;;;67.18;38.67;;;;;;;13.27;100.00;100559.25;12876235;22;20012;-88
2022/10/15 09:07:45;;;;;;;62.30;37.03;;;;;;;12.81;100.00;100442.44;12911634;22;20380;-88
2022/10/15 09:12:57;;;;;;;59.95;34.92;;;;;;;12.48;100.00;100386.72;12813459;22;20463;-87
2022/10/15 09:17:58;;;;;;;54.88;32.67;;;;;;;13.17;100.00;100447.84;12835822;22;20011;-88
2022/10/15 09:22:59;;;;;;;50.78;33.55;;;;;;;12.54;100.00;100311.06;12877436;22;20007;-88
2022/10/15 09:28:00;;;;;;;49.97;30.50;;;;;;;13.23;100.00;100372.09;12893109;22;20008;-89
2022/10/15 09:33:08;;;;;;;44.47;30.23;;;;;;;14.43;100.00;100538.78;12890460;22;20003;-88
2022/10/15 09:38:18;;;;;;;51.45;30.40;;;;;;;14.39;100.00;100542.41;12902848;22;20000;-88
2022/10/15 09:43:29;;;;;;;47.63;31.90;;;;;;;13.35;100.00;100380.91;12928369;22;20098;-87
2022/10/15 09:48:37;;;;;;;45.80;32.95;;;;;;;13.58;100.00;100400.69;12895053;22;20061;-86
2022/10/15 09:53:46;;;;;;;45.53;31.15;;;;;;;14.78;100.00;100513.84;12878902;22;20008;-86
2022/10/15 09:58:53;;;;;;;50.17;32.55;;;;;;;14.62;100.00;100513.19;12943668;22;20074;-87
2022/10/15 10:04:17;;;;;;;44.78;31.77;;;;;;;13.24;100.00;100390.34;12912628;22;20023;-88
2022/10/15 10:09:47;;;;;;;49.80;31.88;;;;;;;14.18;100.00;100531.47;12901030;22;20012;-86
2022/10/15 10:15:08;;;;;;;42.72;27.42;;;;;;;13.08;100.00;100401.47;12923580;22;20308;-86
2022/10/15 10:20:09;;;;;;;36.95;24.30;;;;;;;13.80;100.00;100514.53;12915056;22;20028;-88
2022/10/15 10:25:32;;;;;;;40.40;25.35;;;;;;;12.62;100.00;100385.03;12921932;22;20065;-86
2022/10/15 10:30:38;;;;;;;47.42;25.20;;;;;;;12.49;100.00;100418.75;12889743;22;20464;-87
2022/10/15 10:35:48;;;;;;;49.70;26.23;;;;;;;12.89;100.00;100505.41;12886407;22;20319;-87
2022/10/15 10:40:54;;;;;;;50.20;25.23;;;;;;;12.58;100.00;100491.63;12888869;22;20009;-87
2022/10/15 10:45:57;;;;;;;45.22;24.77;;;;;;;13.19;100.00;100558.97;12887801;22;20346;-87
2022/10/15 10:51:07;;;;;;;50.78;25.85;;;;;;;13.17;100.00;100555.66;12935909;22;20027;-87
2022/10/15 10:56:09;;;;;;;55.05;27.95;;;;;;;12.08;100.00;100371.88;12936835;22;20007;-87
2022/10/15 11:01:11;;;;;;;53.17;27.98;;;;;;;12.06;100.00;100382.34;12885853;22;20007;-86
2022/10/15 11:06:28;;;;;;;54.47;28.13;;;;;;;13.26;100.00;100523.56;12886233;22;20087;-87
2022/10/15 11:11:38;;;;;;;50.97;26.83;;;;;;;13.36;100.00;100515.28;12921924;22;20004;-88
2022/10/15 11:16:48;;;;;;;42.10;23.65;;;;;;;13.82;100.00;100511.47;12894527;22;20061;-88
2022/10/15 11:22:18;;;;;;;39.85;23.23;;;;;;;14.18;100.00;100431.81;12874428;22;20007;-88
2022/10/15 11:27:19;;;;;;;28.27;19.15;;;;;;;15.17;100.00;100454.69;12922088;22;20031;-86
2022/10/15 11:32:24;;;;;;;28.88;16.90;;;;;;;14.42;100.00;100331.34;12937514;22;20019;-89
2022/10/15 11:37:48;;;;;;;22.92;15.68;;;;;;;15.75;100.00;100435.09;12900933;22;20373;-87
2022/10/15 11:42:57;;;;;;;23.92;16.27;;;;;;;14.93;100.00;100308.63;12915296;22;20015;-87
2022/10/15 11:48:27;;;;;;;24.98;16.20;;;;;;;15.68;100.00;100437.38;12891403;22;20010;-87
2022/10/15 11:53:30;;;;;;;21.98;15.80;;;;;;;15.60;100.00;100427.75;12914628;22;20007;-86
2022/10/15 11:58:33;;;;;;;23.00;14.68;;;;;;;14.46;100.00;100305.53;12939218;22;20134;-87
2022/10/15 12:04:04;;;;;;;21.40;14.88;;;;;;;14.30;100.00;100290.22;12889773;22;20039;-87
2022/10/15 12:09:05;;;;;;;21.20;14.57;;;;;;;15.10;100.00;100438.41;12829539;22;20026;-87
2022/10/15 12:14:26;;;;;;;19.42;13.68;;;;;;;15.11;100.00;100431.72;12875296;22;20438;-87
2022/10/15 12:19:47;;;;;;;18.30;13.75;;;;;;;13.64;100.00;100214.22;12852750;22;20095;-87
2022/10/15 12:24:51;;;;;;;17.17;13.40;;;;;;;13.82;100.00;100198.84;12831171;22;20023;-87
2022/10/15 12:30:12;;;;;;;18.30;13.90;;;;;;;13.91;100.00;100217.28;12827678;22;20036;-86
2022/10/15 12:35:12;;;;;;;18.08;13.48;;;;;;;15.21;100.00;100398.31;12854800;22;20458;-86
2022/10/15 12:40:22;;;;;;;17.75;13.02;;;;;;;15.42;100.00;100390.59;12877030;22;20027;-85
2022/10/15 12:45:32;;;;;;;18.55;13.18;;;;;;;15.16;100.00;100331.88;12878046;22;20016;-84
2022/10/15 12:50:33;;;;;;;14.18;10.93;;;;;;;15.03;100.00;100255.81;12829848;22;20479;-84
2022/10/15 12:55:37;;;;;;;15.68;11.82;;;;;;;15.32;100.00;100321.38;12852462;22;20524;-86
2022/10/15 13:00:39;;;;;;;15.10;11.15;;;;;;;15.64;100.00;100355.84;12826694;22;20000;-85
2022/10/15 13:05:40;;;;;;;14.90;9.07;;;;;;;14.83;100.00;100211.75;12847684;22;20027;-85
2022/10/15 13:10:52;;;;;;;15.40;10.13;;;;;;;14.62;100.00;100209.25;12890480;22;20015;-85
2022/10/15 13:15:58;;;;;;;16.95;10.40;;;;;;;14.56;100.00;100232.63;12892091;22;20086;-85
2022/10/15 13:20:59;;;;;;;15.27;10.18;;;;;;;14.48;100.00;100238.78;12891498;22;20061;-85
2022/10/15 13:26:18;;;;;;;19.58;12.18;;;;;;;15.06;100.00;100368.84;12915229;22;20094;-85
2022/10/15 13:31:37;;;;;;;22.58;14.60;;;;;;;14.37;100.00;100321.16;12940984;22;20011;-86
2022/10/15 13:36:37;;;;;;;24.58;15.98;;;;;;;14.53;100.00;100330.94;12890577;22;20020;-86
2022/10/15 13:41:39;;;;;;;26.88;16.80;;;;;;;14.23;100.00;100296.09;12915243;22;20330;-85
2022/10/15 13:46:39;;;;;;;33.22;17.83;;;;;;;14.56;100.00;100326.78;12915284;22;20031;-86
2022/10/15 13:51:42;;;;;;;29.55;18.92;;;;;;;14.41;100.00;100332.47;12940841;22;20007;-85
2022/10/15 13:56:45;;;;;;;26.83;17.83;;;;;;;14.09;100.00;100275.75;12889417;22;20000;-86
2022/10/15 14:01:46;;;;;;;28.17;17.80;;;;;;;14.03;100.00;100279.69;12888234;22;20008;-86
2022/10/15 14:07:04;;;;;;;31.80;20.63;;;;;;;14.31;100.00;100320.38;12914051;22;20539;-87
2022/10/15 14:12:05;;;;;;;33.25;20.45;;;;;;;13.36;100.00;100149.50;12892233;22;20026;-86
2022/10/15 14:17:07;;;;;;;34.95;21.45;;;;;;;14.29;100.00;100333.69;12888879;22;20356;-86
2022/10/15 14:22:15;;;;;;;35.97;22.15;;;;;;;13.31;100.00;100158.66;12890207;22;20026;-87
2022/10/15 14:27:20;;;;;;;36.33;22.50;;;;;;;14.33;100.00;100334.75;12915250;22;20461;-86
2022/10/15 14:32:28;;;;;;;31.52;21.70;;;;;;;14.37;100.00;100340.53;12890185;22;20011;-87
2022/10/15 14:37:34;;;;;;;34.17;22.95;;;;;;;14.66;100.00;100398.72;12888618;22;20031;-88
2022/10/15 14:42:41;;;;;;;38.97;25.00;;;;;;;14.13;100.00;100304.50;12939037;22;20515;-86
2022/10/15 14:47:47;;;;;;;35.45;24.27;;;;;;;14.47;100.00;100389.44;12940675;22;19999;-85
2022/10/15 14:52:49;;;;;;;35.72;23.00;;;;;;;14.22;100.00;100355.38;12889438;22;20053;-86
2022/10/15 14:57:50;;;;;;;36.25;22.85;;;;;;;13.76;100.00;100261.69;12890039;22;20458;-87
2022/10/15 15:02:50;;;;;;;33.03;23.10;;;;;;;13.76;100.00;100256.16;12888612;22;20028;-86
2022/10/15 15:07:51;;;;;;;28.80;20.55;;;;;;;14.41;100.00;100380.38;12889085;22;20153;-86
2022/10/15 15:12:53;;;;;;;31.63;19.70;;;;;;;14.09;100.00;100317.28;12892762;22;20004;-87
2022/10/15 15:17:53;;;;;;;27.73;19.27;;;;;;;13.97;100.00;100303.00;12893868;22;20014;-86
2022/10/15 15:22:54;;;;;;;25.05;18.48;;;;;;;13.93;100.00;100288.91;12894403;22;20350;-86
2022/10/15 15:27:55;;;;;;;19.95;14.60;;;;;;;14.47;100.00;100362.59;12894353;22;20075;-85
2022/10/15 15:32:55;;;;;;;19.33;13.07;;;;;;;14.31;100.00;100348.06;12917676;22;20012;-85
2022/10/15 15:37:56;;;;;;;19.15;11.52;;;;;;;14.33;100.00;100337.53;12893966;22;21737;-85
2022/10/15 15:42:56;;;;;;;13.43;9.77;;;;;;;14.47;100.00;100373.66;12918260;22;20031;-85
2022/10/15 15:48:00;;;;;;;10.32;8.43;;;;;;;13.98;100.00;100312.97;12819145;22;20003;-86
2022/10/15 15:53:01;;;;;;;12.00;7.50;;;;;;;13.71;100.00;100248.72;12900145;22;20115;-86
2022/10/15 15:58:01;;;;;;;12.07;7.85;;;;;;;13.53;100.00;100228.13;12890145;22;20406;-87
2022/10/15 16:03:02;;;;;;;9.20;6.30;;;;;;;13.45;100.00;100237.06;12891513;22;20442;-86
2022/10/15 16:08:03;;;;;;;9.45;6.50;;;;;;;14.03;100.00;100373.78;12916170;22;20043;-86
2022/10/15 16:13:03;;;;;;;9.48;6.72;;;;;;;13.20;100.00;100259.34;12891862;22;20004;-86
2022/10/15 16:18:04;;;;;;;9.50;7.50;;;;;;;14.25;100.00;100435.06;12908516;22;20042;-86
2022/10/15 16:23:04;;;;;;;9.07;7.10;;;;;;;13.63;100.00;100397.91;12917755;22;20035;-87
2022/10/15 16:28:05;;;;;;;13.55;8.32;;;;;;;13.26;100.00;100360.47;12891825;22;20427;-86
2022/10/15 16:33:05;;;;;;;11.20;7.35;;;;;;;13.74;100.00;100454.81;12915610;22;20079;-86
2022/10/15 16:38:06;;;;;;;9.80;7.68;;;;;;;13.12;100.00;100369.41;12915786;22;20039;-85
2022/10/15 16:43:06;;;;;;;11.70;7.40;;;;;;;13.75;100.00;100477.78;12915439;22;20011;-86
2022/10/15 16:48:07;;;;;;;13.07;8.13;;;;;;;13.23;100.00;100391.44;12891490;22;20022;-86
2022/10/15 16:53:07;;;;;;;12.90;8.57;;;;;;;12.97;100.00;100346.53;12915490;22;20449;-86
2022/10/15 16:58:08;;;;;;;11.27;7.20;;;;;;;13.10;100.00;100434.34;12889718;22;20003;-86
2022/10/15 17:03:08;;;;;;;11.30;7.07;;;;;;;12.81;100.00;100384.44;12890595;22;20078;-86
2022/10/15 17:08:09;;;;;;;9.73;7.78;;;;;;;13.31;100.00;100469.13;12889100;22;20442;-87
2022/10/15 17:13:10;;;;;;;9.65;7.47;;;;;;;13.42;100.00;100486.50;12940043;22;20035;-86
2022/10/15 17:18:10;;;;;;;10.57;7.47;;;;;;;12.58;100.00;100370.13;12889262;22;20057;-86
2022/10/15 17:23:11;;;;;;;9.32;6.95;;;;;;;12.95;100.00;100448.22;12887973;22;20058;-85
2022/10/15 17:28:11;;;;;;;9.48;7.50;;;;;;;12.51;100.00;100362.16;12914076;22;20010;-86
2022/10/15 17:33:12;;;;;;;9.65;5.90;;;;;;;12.66;100.00;100440.53;12913674;22;20430;-85
2022/10/15 17:38:12;;;;;;;9.43;6.60;;;;;;;13.30;100.00;100552.34;12890228;22;20008;-83
2022/10/15 17:43:13;;;;;;;9.52;6.45;;;;;;;12.50;100.00;100461.81;12939513;22;20507;-87
2022/10/15 17:48:13;;;;;;;7.63;6.25;;;;;;;12.29;100.00;100456.31;12913950;22;20008;-87
2022/10/15 17:53:14;;;;;;;11.82;6.50;;;;;;;12.62;100.00;100506.53;12886830;22;20004;-85
2022/10/15 17:58:15;;;;;;;11.15;6.13;;;;;;;12.16;100.00;100498.25;12888189;22;20011;-86
2022/10/15 18:03:16;;;;;;;9.65;5.55;;;;;;;11.91;100.00;100468.69;12913671;22;20355;-85
2022/10/15 18:08:16;;;;;;;9.07;5.57;;;;;;;12.54;100.00;100592.69;12910769;22;20073;-86
2022/10/15 18:13:17;;;;;;;14.07;4.85;;;;;;;11.77;100.00;100473.88;12912024;22;20030;-86
2022/10/15 18:18:17;;;;;;;12.18;3.17;;;;;;;10.91;100.00;100351.22;12888177;22;20093;-86
2022/10/15 18:23:18;;;;;;;7.90;3.47;;;;;;;12.07;100.00;100561.44;12913600;22;20019;-85
2022/10/15 18:28:19;;;;;;;6.70;2.90;;;;;;;12.02;100.00;100541.28;12911714;22;19996;-86
2022/10/15 18:33:19;;;;;;;6.97;2.47;;;;;;;11.56;100.00;100488.72;12887295;22;20107;-86
2022/10/15 18:38:20;;;;;;;6.55;3.08;;;;;;;12.59;100.00;100674.72;12888351;22;19996;-86
2022/10/15 18:43:20;;;;;;;4.28;2.30;;;;;;;11.25;100.00;100441.72;12914975;22;20087;-86
2022/10/15 18:48:21;;;;;;;4.88;2.50;;;;;;;11.94;100.00;100595.03;12918094;22;20419;-86
2022/10/15 18:53:22;;;;;;;9.90;2.92;;;;;;;10.30;100.00;100351.75;12892504;22;24477;-86
2022/10/15 18:58:23;;;;;;;6.32;3.53;;;;;;;11.45;100.00;100521.75;12893214;22;20379;-86
2022/10/15 19:03:23;;;;;;;14.52;4.30;;;;;;;12.31;100.00;100666.63;12893402;22;20016;-85
2022/10/15 19:08:25;;;;;;;10.95;3.67;;;;;;;11.83;100.00;100598.84;12917975;22;20434;-85
2022/10/15 19:13:25;;;;;;;5.00;2.80;;;;;;;12.02;100.00;100644.19;12946082;22;20018;-85
2022/10/15 19:18:26;;;;;;;8.07;4.53;;;;;;;10.50;100.00;100384.09;12892860;22;20028;-85
2022/10/15 19:23:26;;;;;;;13.50;3.67;;;;;;;11.15;100.00;100516.09;12892994;22;20031;-85
2022/10/15 19:28:27;;;;;;;7.70;3.83;;;;;;;11.25;100.00;100514.19;12918125;22;20024;-85
2022/10/15 19:33:28;;;;;;;6.50;3.47;;;;;;;10.52;100.00;100409.38;12917455;22;20329;-85
2022/10/15 19:38:29;;;;;;;8.82;4.10;;;;;;;11.27;100.00;100524.97;12892736;22;20011;-85
2022/10/15 19:43:29;;;;;;;9.52;4.47;;;;;;;11.05;100.00;100531.44;12890442;22;20036;-85
2022/10/15 19:48:30;;;;;;;5.97;3.42;;;;;;;11.44;100.00;100601.94;12919066;22;19996;-84
2022/10/15 19:53:30;;;;;;;8.65;3.55;;;;;;;11.54;100.00;100634.28;12919159;22;20007;-85
2022/10/15 19:58:31;;;;;;;9.43;3.95;;;;;;;11.25;100.00;100582.28;12893710;22;20004;-85
2022/10/15 20:03:32;;;;;;;7.60;4.38;;;;;;;11.43;100.00;100603.88;12892926;22;20139;-85
2022/10/15 20:08:33;;;;;;;8.43;3.97;;;;;;;10.88;100.00;100525.28;12918678;22;20020;-85
2022/10/15 20:13:34;;;;;;;6.18;3.08;;;;;;;11.25;100.00;100613.41;12894509;22;20046;-85
2022/10/15 20:18:34;;;;;;;11.50;3.67;;;;;;;10.47;100.00;100469.91;12894039;22;20032;-85
2022/10/15 20:23:36;;;;;;;7.05;3.63;;;;;;;11.08;100.00;100563.97;12893552;22;20061;-86
2022/10/15 20:28:38;;;;;;;9.23;3.50;;;;;;;10.64;100.00;100511.88;12894010;22;20430;-86
2022/10/15 20:33:39;;;;;;;8.52;3.70;;;;;;;10.86;100.00;100564.09;12893274;22;20011;-87
2022/10/15 20:38:39;;;;;;;8.02;3.20;;;;;;;10.88;100.00;100555.56;12892704;22;20489;-86
2022/10/15 20:43:40;;;;;;;7.53;3.47;;;;;;;10.96;100.00;100566.09;12893501;22;20039;-86
2022/10/15 20:48:41;;;;;;;8.95;3.40;;;;;;;10.10;100.00;100419.22;12867624;22;20010;-86
2022/10/15 20:53:42;;;;;;;10.88;4.65;;;;;;;10.83;100.00;100547.25;12918243;22;20000;-86
2022/10/15 20:58:43;;;;;;;9.93;3.80;;;;;;;11.40;100.00;100631.16;12918943;22;20008;-86
2022/10/15 21:03:44;;;;;;;14.60;4.60;;;;;;;11.09;100.00;100612.47;12893787;22;20027;-85
2022/10/15 21:08:44;;;;;;;8.65;3.85;;;;;;;11.32;100.00;100662.78;12919139;22;20051;-85
2022/10/15 21:13:45;;;;;;;12.93;4.15;;;;;;;10.78;100.00;100599.56;12918087;22;20074;-86
2022/10/15 21:18:45;;;;;;;8.48;4.05;;;;;;;10.77;100.00;100589.63;12917756;22;20007;-86
2022/10/15 21:23:46;;;;;;;8.88;4.05;;;;;;;10.85;100.00;100623.03;12890988;22;20014;-85
2022/10/15 21:28:46;;;;;;;9.60;4.45;;;;;;;10.94;100.00;100653.66;12917397;22;20089;-85
2022/10/15 21:33:47;;;;;;;11.20;3.55;;;;;;;10.10;100.00;100512.75;12891725;22;20011;-85
2022/10/15 21:38:50;;;;;;;12.50;4.57;;;;;;;10.48;100.00;100557.72;12891635;22;20007;-85
2022/10/15 21:43:51;;;;;;;7.80;3.85;;;;;;;11.78;100.00;100773.41;12891682;22;20034;-85
2022/10/15 21:48:51;;;;;;;9.32;3.97;;;;;;;11.19;100.00;100686.13;12892917;22;20018;-84
2022/10/15 21:53:52;;;;;;;5.38;2.53;;;;;;;10.32;100.00;100541.34;12892714;22;20008;-86
2022/10/15 21:58:53;;;;;;;11.75;2.80;;;;;;;11.27;100.00;100709.59;12892506;22;20418;-85
2022/10/15 22:03:57;;;;;;;4.55;1.80;;;;;;;10.85;100.00;100660.72;12891789;22;20027;-85
2022/10/15 22:08:59;;;;;;;10.52;2.30;;;;;;;10.82;100.00;100639.25;12892020;22;20019;-86
2022/10/15 22:14:02;;;;;;;6.50;2.13;;;;;;;10.70;100.00;100596.16;12891567;22;19999;-86
2022/10/15 22:19:03;;;;;;;10.00;2.03;;;;;;;10.60;100.00;100609.84;12867283;22;20446;-85
2022/10/15 22:24:15;;;;;;;7.07;2.28;;;;;;;10.73;100.00;100646.31;12891660;22;20077;-85
2022/10/15 22:29:34;;;;;;;6.07;1.65;;;;;;;10.68;100.00;100639.66;12918192;22;20000;-85
2022/10/15 22:34:35;;;;;;;8.15;1.88;;;;;;;11.00;100.00;100702.22;12916729;22;20000;-86